PWSweather.com
Personal Weather Stations
Station Observations
KCAOCEAN4
Jeffries Ranch, Oceanside, CA 92057

Jeffries RanchOceanside, CA 92057

Lat: 33.2463208, Lon: -117.25335080000002

Elevation: 207

Station Type: Davis Vantage Vue

jeffriesranchweather.com

High Low Average
Temperature 70.0°F21.1°C 41.2°F5.1°C 55.6°F13.1°C
Dew Point 49.1°F9.5°C 29.3°F-1.5°C 37.2°F2.9°C
Winds 6.0 mph 9.7 kmh Calm Calm 2.0 mph SSE3.2 kmh SSE
Wind Gusts 11.0 mph17.7 kmh -- 4.0 mph6.4 kmh
Humidity 79% 22% 53%
Pressure 30.04 in1017.3 mb 29.93 in1013.5 mb -
Precipitation 0.00 in0.0 mm - -
Hour Temp Dew Point Humidity Winds Wind Gusts Pressure Precip Precip Rate Daily Precip Total
12:00 AM 45.9°F7.7°C 32.4°F0.2°C 59% Calm Calm 3.0 mph4.8 kmh 30.01 in1016.3 mb 0.00 in0.0 mm 0.00 in0.0 mm 0.00 in0.0 mm
12:10 AM 45.1°F7.3°C 31.6°F-0.2°C 59% Calm Calm 0.9 mph1.4 kmh 30.01 in1016.3 mb 0.00 in0.0 mm 0.00 in0.0 mm 0.00 in0.0 mm
12:20 AM 45.7°F7.6°C 30.9°F-0.6°C 56% 2.0 mph E3.2 kmh E 4.9 mph7.9 kmh 30.01 in1016.3 mb 0.00 in0.0 mm 0.00 in0.0 mm 0.00 in0.0 mm
12:30 AM 45.0°F7.2°C 30.6°F-0.8°C 57% 2.0 mph E3.2 kmh E 4.0 mph6.4 kmh 30.01 in1016.3 mb 0.00 in0.0 mm 0.00 in0.0 mm 0.00 in0.0 mm
12:40 AM 44.8°F7.1°C 30.9°F-0.6°C 58% 2.0 mph ENE3.2 kmh ENE 6.9 mph11.1 kmh 30.02 in1016.6 mb 0.00 in0.0 mm 0.00 in0.0 mm 0.00 in0.0 mm
12:50 AM 45.0°F7.2°C 30.6°F-0.8°C 57% 2.9 mph ENE4.7 kmh ENE 4.9 mph7.9 kmh 30.01 in1016.3 mb 0.00 in0.0 mm 0.00 in0.0 mm 0.00 in0.0 mm
01:00 AM 44.4°F6.9°C 30.6°F-0.8°C 58% 2.0 mph NE3.2 kmh NE 6.0 mph9.7 kmh 30.02 in1016.6 mb 0.00 in0.0 mm 0.00 in0.0 mm 0.00 in0.0 mm
01:10 AM 44.2°F6.8°C 31.3°F-0.4°C 60% 2.0 mph E3.2 kmh E 7.0 mph11.3 kmh 30.02 in1016.6 mb 0.00 in0.0 mm 0.00 in0.0 mm 0.00 in0.0 mm
01:20 AM 43.9°F6.6°C 31.3°F-0.4°C 61% 2.0 mph ENE3.2 kmh ENE 6.9 mph11.1 kmh 30.02 in1016.6 mb 0.00 in0.0 mm 0.00 in0.0 mm 0.00 in0.0 mm
01:30 AM 43.5°F6.4°C 31.8°F-0.1°C 63% 2.0 mph NE3.2 kmh NE 5.0 mph8.0 kmh 30.02 in1016.6 mb 0.00 in0.0 mm 0.00 in0.0 mm 0.00 in0.0 mm
01:40 AM 43.7°F6.5°C 31.1°F-0.5°C 61% 2.0 mph NNE3.2 kmh NNE 6.0 mph9.7 kmh 30.02 in1016.6 mb 0.00 in0.0 mm 0.00 in0.0 mm 0.00 in0.0 mm
01:50 AM 43.3°F6.3°C 30.7°F-0.7°C 61% 2.0 mph ENE3.2 kmh ENE 4.9 mph7.9 kmh 30.02 in1016.6 mb 0.00 in0.0 mm 0.00 in0.0 mm 0.00 in0.0 mm
02:00 AM 43.0°F6.1°C 30.9°F-0.6°C 62% 2.0 mph E3.2 kmh E 4.9 mph7.9 kmh 30.02 in1016.6 mb 0.00 in0.0 mm 0.00 in0.0 mm 0.00 in0.0 mm
02:10 AM 42.8°F6.0°C 30.7°F-0.7°C 62% 2.0 mph E3.2 kmh E 4.9 mph7.9 kmh 30.01 in1016.3 mb 0.00 in0.0 mm 0.00 in0.0 mm 0.00 in0.0 mm
02:20 AM 42.6°F5.9°C 30.9°F-0.6°C 63% 0.9 mph NE1.4 kmh NE 6.0 mph9.7 kmh 30.01 in1016.3 mb 0.00 in0.0 mm 0.00 in0.0 mm 0.00 in0.0 mm
02:30 AM 42.4°F5.8°C 30.7°F-0.7°C 63% 2.9 mph ENE4.7 kmh ENE 6.0 mph9.7 kmh 30.01 in1016.3 mb 0.00 in0.0 mm 0.00 in0.0 mm 0.00 in0.0 mm
02:41 AM 41.9°F5.5°C 30.9°F-0.6°C 65% - N N -- -- 0.00 in0.0 mm 0.00 in0.0 mm 0.00 in0.0 mm
02:51 AM 42.1°F5.6°C 30.7°F-0.7°C 64% 2.0 mph E3.2 kmh E 6.0 mph9.7 kmh 29.99 in1015.6 mb 0.00 in0.0 mm 0.00 in0.0 mm 0.00 in0.0 mm
03:01 AM 42.4°F5.8°C 30.7°F-0.7°C 63% 2.0 mph NE3.2 kmh NE 4.9 mph7.9 kmh 29.99 in1015.6 mb 0.00 in0.0 mm 0.00 in0.0 mm 0.00 in0.0 mm
03:11 AM 42.4°F5.8°C 30.7°F-0.7°C 63% 2.0 mph E3.2 kmh E 4.9 mph7.9 kmh 29.98 in1015.2 mb 0.00 in0.0 mm 0.00 in0.0 mm 0.00 in0.0 mm
03:21 AM 42.6°F5.9°C 30.9°F-0.6°C 63% 2.0 mph ENE3.2 kmh ENE 7.0 mph11.3 kmh 29.98 in1015.2 mb 0.00 in0.0 mm 0.00 in0.0 mm 0.00 in0.0 mm
03:31 AM 42.6°F5.9°C 30.6°F-0.8°C 62% 2.9 mph ENE4.7 kmh ENE 6.9 mph11.1 kmh 29.98 in1015.2 mb 0.00 in0.0 mm 0.00 in0.0 mm 0.00 in0.0 mm
03:41 AM 42.6°F5.9°C 30.9°F-0.6°C 63% 2.0 mph E3.2 kmh E 4.9 mph7.9 kmh 29.97 in1014.9 mb 0.00 in0.0 mm 0.00 in0.0 mm 0.00 in0.0 mm
03:51 AM 42.6°F5.9°C 30.9°F-0.6°C 63% 2.0 mph ENE3.2 kmh ENE 4.9 mph7.9 kmh 29.97 in1014.9 mb 0.00 in0.0 mm 0.00 in0.0 mm 0.00 in0.0 mm
04:01 AM 42.8°F6.0°C 30.7°F-0.7°C 62% 2.9 mph NE4.7 kmh NE 6.9 mph11.1 kmh 29.96 in1014.6 mb 0.00 in0.0 mm 0.00 in0.0 mm 0.00 in0.0 mm
04:11 AM 42.8°F6.0°C 31.1°F-0.5°C 63% 2.9 mph NE4.7 kmh NE 7.0 mph11.3 kmh 29.96 in1014.6 mb 0.00 in0.0 mm 0.00 in0.0 mm 0.00 in0.0 mm
04:21 AM 42.4°F5.8°C 30.7°F-0.7°C 63% 2.0 mph NNE3.2 kmh NNE 7.0 mph11.3 kmh 29.95 in1014.2 mb 0.00 in0.0 mm 0.00 in0.0 mm 0.00 in0.0 mm
04:31 AM 42.3°F5.7°C 30.9°F-0.6°C 64% 2.9 mph E4.7 kmh E 6.0 mph9.7 kmh 29.95 in1014.2 mb 0.00 in0.0 mm 0.00 in0.0 mm 0.00 in0.0 mm
04:41 AM 42.1°F5.6°C 30.7°F-0.7°C 64% 0.9 mph SE1.4 kmh SE 2.9 mph4.7 kmh 29.96 in1014.6 mb 0.00 in0.0 mm 0.00 in0.0 mm 0.00 in0.0 mm
04:51 AM 42.6°F5.9°C 30.9°F-0.6°C 63% 2.9 mph E4.7 kmh E 6.9 mph11.1 kmh 29.96 in1014.6 mb 0.00 in0.0 mm 0.00 in0.0 mm 0.00 in0.0 mm
05:01 AM 42.6°F5.9°C 30.9°F-0.6°C 63% 0.9 mph E1.4 kmh E 6.0 mph9.7 kmh 29.96 in1014.6 mb 0.00 in0.0 mm 0.00 in0.0 mm 0.00 in0.0 mm
05:11 AM 42.6°F5.9°C 30.9°F-0.6°C 63% 2.9 mph E4.7 kmh E 4.9 mph7.9 kmh 29.96 in1014.6 mb 0.00 in0.0 mm 0.00 in0.0 mm 0.00 in0.0 mm
05:21 AM 43.2°F6.2°C 30.6°F-0.8°C 61% 2.0 mph ENE3.2 kmh ENE 6.9 mph11.1 kmh 29.96 in1014.6 mb 0.00 in0.0 mm 0.00 in0.0 mm 0.00 in0.0 mm
05:31 AM 43.2°F6.2°C 31.1°F-0.5°C 62% 2.9 mph ENE4.7 kmh ENE 6.0 mph9.7 kmh 29.96 in1014.6 mb 0.00 in0.0 mm 0.00 in0.0 mm 0.00 in0.0 mm
05:41 AM 42.6°F5.9°C 30.6°F-0.8°C 62% Calm Calm 2.9 mph4.7 kmh 29.98 in1015.2 mb 0.00 in0.0 mm 0.00 in0.0 mm 0.00 in0.0 mm
05:51 AM 42.1°F5.6°C 31.5°F-0.3°C 66% Calm Calm 0.9 mph1.4 kmh 29.99 in1015.6 mb 0.00 in0.0 mm 0.00 in0.0 mm 0.00 in0.0 mm
06:01 AM 41.7°F5.4°C 31.3°F-0.4°C 66% 0.9 mph SE1.4 kmh SE 3.0 mph4.8 kmh 30.00 in1015.9 mb 0.00 in0.0 mm 0.00 in0.0 mm 0.00 in0.0 mm
06:11 AM 41.5°F5.3°C 31.8°F-0.1°C 68% 2.0 mph SE3.2 kmh SE 2.9 mph4.7 kmh 30.01 in1016.3 mb 0.00 in0.0 mm 0.00 in0.0 mm 0.00 in0.0 mm
06:21 AM 41.2°F5.1°C 31.8°F-0.1°C 69% Calm Calm 0.9 mph1.4 kmh 30.02 in1016.6 mb 0.00 in0.0 mm 0.00 in0.0 mm 0.00 in0.0 mm
06:31 AM 41.2°F5.1°C 32.2°F0.1°C 70% 0.9 mph ENE1.4 kmh ENE 3.0 mph4.8 kmh 30.01 in1016.3 mb 0.00 in0.0 mm 0.00 in0.0 mm 0.00 in0.0 mm
06:41 AM 42.6°F5.9°C 31.3°F-0.4°C 64% 2.0 mph SE3.2 kmh SE 4.9 mph7.9 kmh 30.01 in1016.3 mb 0.00 in0.0 mm 0.00 in0.0 mm 0.00 in0.0 mm
06:51 AM 44.6°F7.0°C 31.1°F-0.5°C 59% 2.0 mph SE3.2 kmh SE 4.0 mph6.4 kmh 30.01 in1016.3 mb 0.00 in0.0 mm 0.00 in0.0 mm 0.00 in0.0 mm
07:01 AM 45.7°F7.6°C 30.4°F-0.9°C 55% 0.9 mph ENE1.4 kmh ENE 2.0 mph3.2 kmh 30.01 in1016.3 mb 0.00 in0.0 mm 0.00 in0.0 mm 0.00 in0.0 mm
07:11 AM 43.9°F6.6°C 30.9°F-0.6°C 60% 0.9 mph E1.4 kmh E 4.0 mph6.4 kmh 30.01 in1016.3 mb 0.00 in0.0 mm 0.00 in0.0 mm 0.00 in0.0 mm
07:21 AM 43.0°F6.1°C 30.9°F-0.6°C 62% 2.0 mph ENE3.2 kmh ENE 5.0 mph8.0 kmh 30.01 in1016.3 mb 0.00 in0.0 mm 0.00 in0.0 mm 0.00 in0.0 mm
07:31 AM 42.8°F6.0°C 31.1°F-0.5°C 63% 4.0 mph ENE6.4 kmh ENE 9.0 mph14.5 kmh 29.99 in1015.6 mb 0.00 in0.0 mm 0.00 in0.0 mm 0.00 in0.0 mm
07:41 AM 43.0°F6.1°C 30.9°F-0.6°C 62% 4.9 mph NE7.9 kmh NE 8.9 mph14.3 kmh 30.00 in1015.9 mb 0.00 in0.0 mm 0.00 in0.0 mm 0.00 in0.0 mm
07:51 AM 43.3°F6.3°C 31.3°F-0.4°C 62% 6.0 mph ENE9.7 kmh ENE 10.1 mph16.3 kmh 30.00 in1015.9 mb 0.00 in0.0 mm 0.00 in0.0 mm 0.00 in0.0 mm
08:01 AM 43.3°F6.3°C 31.6°F-0.2°C 63% 2.9 mph ENE4.7 kmh ENE 8.1 mph13.0 kmh 30.00 in1015.9 mb 0.00 in0.0 mm 0.00 in0.0 mm 0.00 in0.0 mm
08:11 AM 43.9°F6.6°C 31.6°F-0.2°C 62% 2.9 mph E4.7 kmh E 8.9 mph14.3 kmh 30.00 in1015.9 mb 0.00 in0.0 mm 0.00 in0.0 mm 0.00 in0.0 mm
08:21 AM 45.0°F7.2°C 32.0°F0.0°C 60% 0.9 mph E1.4 kmh E 4.9 mph7.9 kmh 30.00 in1015.9 mb 0.00 in0.0 mm 0.00 in0.0 mm 0.00 in0.0 mm
08:31 AM 45.9°F7.7°C 32.0°F0.0°C 58% Calm Calm 0.9 mph1.4 kmh 30.00 in1015.9 mb 0.00 in0.0 mm 0.00 in0.0 mm 0.00 in0.0 mm
08:41 AM 46.8°F8.2°C 31.5°F-0.3°C 55% 0.9 mph ENE1.4 kmh ENE 6.0 mph9.7 kmh 29.99 in1015.6 mb 0.00 in0.0 mm 0.00 in0.0 mm 0.00 in0.0 mm
08:51 AM 47.8°F8.8°C 32.5°F0.3°C 55% 2.0 mph ENE3.2 kmh ENE 6.0 mph9.7 kmh 30.00 in1015.9 mb 0.00 in0.0 mm 0.00 in0.0 mm 0.00 in0.0 mm
09:01 AM 49.5°F9.7°C 33.1°F0.6°C 53% Calm Calm 2.0 mph3.2 kmh 30.01 in1016.3 mb 0.00 in0.0 mm 0.00 in0.0 mm 0.00 in0.0 mm
09:11 AM 51.6°F10.9°C 33.1°F0.6°C 49% Calm Calm 2.0 mph3.2 kmh 30.03 in1016.9 mb 0.00 in0.0 mm 0.00 in0.0 mm 0.00 in0.0 mm
09:21 AM 53.1°F11.7°C 33.8°F1.0°C 48% 0.9 mph SE1.4 kmh SE 3.0 mph4.8 kmh 30.03 in1016.9 mb 0.00 in0.0 mm 0.00 in0.0 mm 0.00 in0.0 mm
09:31 AM 55.0°F12.8°C 33.4°F0.8°C 44% 0.9 mph SSE1.4 kmh SSE 2.9 mph4.7 kmh 30.03 in1016.9 mb 0.00 in0.0 mm 0.00 in0.0 mm 0.00 in0.0 mm
09:41 AM 56.5°F13.6°C 34.3°F1.3°C 43% 0.9 mph SSE1.4 kmh SSE 2.0 mph3.2 kmh 30.03 in1016.9 mb 0.00 in0.0 mm 0.00 in0.0 mm 0.00 in0.0 mm
09:51 AM 58.1°F14.5°C 35.1°F1.7°C 42% Calm Calm 0.9 mph1.4 kmh 30.02 in1016.6 mb 0.00 in0.0 mm 0.00 in0.0 mm 0.00 in0.0 mm
10:01 AM 59.5°F15.3°C 34.0°F1.1°C 38% Calm Calm 0.9 mph1.4 kmh 30.03 in1016.9 mb 0.00 in0.0 mm 0.00 in0.0 mm 0.00 in0.0 mm
10:11 AM 61.3°F16.3°C 32.7°F0.4°C 34% Calm Calm -- 30.03 in1016.9 mb 0.00 in0.0 mm 0.00 in0.0 mm 0.00 in0.0 mm
10:21 AM 62.2°F16.8°C 32.7°F0.4°C 33% Calm Calm 0.9 mph1.4 kmh 30.04 in1017.3 mb 0.00 in0.0 mm 0.00 in0.0 mm 0.00 in0.0 mm
10:32 AM 63.0°F17.2°C 33.4°F0.8°C 33% Calm Calm 2.0 mph3.2 kmh 30.04 in1017.3 mb 0.00 in0.0 mm 0.00 in0.0 mm 0.00 in0.0 mm
10:42 AM 63.5°F17.5°C 33.1°F0.6°C 32% Calm Calm 2.0 mph3.2 kmh 30.04 in1017.3 mb 0.00 in0.0 mm 0.00 in0.0 mm 0.00 in0.0 mm
10:52 AM 64.2°F17.9°C 32.2°F0.1°C 30% 0.9 mph WNW1.4 kmh WNW 2.0 mph3.2 kmh 30.04 in1017.3 mb 0.00 in0.0 mm 0.00 in0.0 mm 0.00 in0.0 mm
11:02 AM 65.1°F18.4°C 34.5°F1.4°C 32% 0.9 mph WNW1.4 kmh WNW 2.9 mph4.7 kmh 30.03 in1016.9 mb 0.00 in0.0 mm 0.00 in0.0 mm 0.00 in0.0 mm
11:12 AM 66.4°F19.1°C 35.6°F2.0°C 32% 2.0 mph NW3.2 kmh NW 4.9 mph7.9 kmh 30.03 in1016.9 mb 0.00 in0.0 mm 0.00 in0.0 mm 0.00 in0.0 mm
11:22 AM 67.3°F19.6°C 34.0°F1.1°C 29% 0.9 mph WNW1.4 kmh WNW 4.9 mph7.9 kmh 30.02 in1016.6 mb 0.00 in0.0 mm 0.00 in0.0 mm 0.00 in0.0 mm
11:32 AM 67.5°F19.7°C 34.9°F1.6°C 30% 2.0 mph WNW3.2 kmh WNW 6.0 mph9.7 kmh 30.03 in1016.9 mb 0.00 in0.0 mm 0.00 in0.0 mm 0.00 in0.0 mm
11:42 AM 68.4°F20.2°C 36.5°F2.5°C 31% 2.0 mph WSW3.2 kmh WSW 6.0 mph9.7 kmh 30.03 in1016.9 mb 0.00 in0.0 mm 0.00 in0.0 mm 0.00 in0.0 mm
11:52 AM 68.5°F20.3°C 36.0°F2.2°C 30% 2.9 mph W4.7 kmh W 6.9 mph11.1 kmh 30.03 in1016.9 mb 0.00 in0.0 mm 0.00 in0.0 mm 0.00 in0.0 mm
12:02 PM 68.9°F20.5°C 33.6°F0.9°C 27% 2.9 mph NW4.7 kmh NW 6.9 mph11.1 kmh 30.02 in1016.6 mb 0.00 in0.0 mm 0.00 in0.0 mm 0.00 in0.0 mm
12:12 PM 69.3°F20.7°C 32.9°F0.5°C 26% 4.0 mph SW6.4 kmh SW 9.0 mph14.5 kmh 30.03 in1016.9 mb 0.00 in0.0 mm 0.00 in0.0 mm 0.00 in0.0 mm
12:22 PM 69.1°F20.6°C 29.7°F-1.3°C 23% 4.0 mph NW6.4 kmh NW 8.1 mph13.0 kmh 30.02 in1016.6 mb 0.00 in0.0 mm 0.00 in0.0 mm 0.00 in0.0 mm
12:32 PM 69.4°F20.8°C 31.1°F-0.5°C 24% 2.9 mph W4.7 kmh W 6.0 mph9.7 kmh 30.01 in1016.3 mb 0.00 in0.0 mm 0.00 in0.0 mm 0.00 in0.0 mm
12:42 PM 70.0°F21.1°C 29.3°F-1.5°C 22% 2.9 mph SW4.7 kmh SW 6.0 mph9.7 kmh 30.01 in1016.3 mb 0.00 in0.0 mm 0.00 in0.0 mm 0.00 in0.0 mm
12:52 PM 69.6°F20.9°C 30.2°F-1.0°C 23% 2.9 mph W4.7 kmh W 6.0 mph9.7 kmh 30.01 in1016.3 mb 0.00 in0.0 mm 0.00 in0.0 mm 0.00 in0.0 mm
01:02 PM 69.4°F20.8°C 32.0°F0.0°C 25% 4.0 mph SW6.4 kmh SW 9.0 mph14.5 kmh 30.00 in1015.9 mb 0.00 in0.0 mm 0.00 in0.0 mm 0.00 in0.0 mm
01:12 PM 70.0°F21.1°C 35.4°F1.9°C 28% 2.9 mph W4.7 kmh W 9.0 mph14.5 kmh 30.00 in1015.9 mb 0.00 in0.0 mm 0.00 in0.0 mm 0.00 in0.0 mm
01:22 PM 69.1°F20.6°C 33.6°F0.9°C 27% 4.0 mph W6.4 kmh W 8.1 mph13.0 kmh 30.00 in1015.9 mb 0.00 in0.0 mm 0.00 in0.0 mm 0.00 in0.0 mm
01:32 PM 68.7°F20.4°C 35.2°F1.8°C 29% 4.9 mph WNW7.9 kmh WNW 8.1 mph13.0 kmh 29.99 in1015.6 mb 0.00 in0.0 mm 0.00 in0.0 mm 0.00 in0.0 mm
01:42 PM 69.1°F20.6°C 34.5°F1.4°C 28% 2.9 mph SW4.7 kmh SW 6.9 mph11.1 kmh 29.98 in1015.2 mb 0.00 in0.0 mm 0.00 in0.0 mm 0.00 in0.0 mm
01:52 PM 69.1°F20.6°C 36.3°F2.4°C 30% 2.9 mph W4.7 kmh W 6.0 mph9.7 kmh 29.97 in1014.9 mb 0.00 in0.0 mm 0.00 in0.0 mm 0.00 in0.0 mm
02:02 PM 69.4°F20.8°C 36.7°F2.6°C 30% 0.9 mph NW1.4 kmh NW 4.0 mph6.4 kmh 29.96 in1014.6 mb 0.00 in0.0 mm 0.00 in0.0 mm 0.00 in0.0 mm
02:12 PM 69.8°F21.0°C 37.8°F3.2°C 31% 2.0 mph W3.2 kmh W 4.0 mph6.4 kmh 29.97 in1014.9 mb 0.00 in0.0 mm 0.00 in0.0 mm 0.00 in0.0 mm
02:22 PM 69.6°F20.9°C 37.6°F3.1°C 31% 4.0 mph W6.4 kmh W 8.1 mph13.0 kmh 29.97 in1014.9 mb 0.00 in0.0 mm 0.00 in0.0 mm 0.00 in0.0 mm
02:32 PM 69.1°F20.6°C 39.6°F4.2°C 34% 4.9 mph NW7.9 kmh NW 8.1 mph13.0 kmh 29.96 in1014.6 mb 0.00 in0.0 mm 0.00 in0.0 mm 0.00 in0.0 mm
02:42 PM 69.1°F20.6°C 38.8°F3.8°C 33% 2.9 mph W4.7 kmh W 6.9 mph11.1 kmh 29.96 in1014.6 mb 0.00 in0.0 mm 0.00 in0.0 mm 0.00 in0.0 mm
02:52 PM 69.4°F20.8°C 35.8°F2.1°C 29% 2.9 mph WSW4.7 kmh WSW 6.0 mph9.7 kmh 29.96 in1014.6 mb 0.00 in0.0 mm 0.00 in0.0 mm 0.00 in0.0 mm
03:02 PM 69.6°F20.9°C 37.6°F3.1°C 31% 2.9 mph NW4.7 kmh NW 6.0 mph9.7 kmh 29.95 in1014.2 mb 0.00 in0.0 mm 0.00 in0.0 mm 0.00 in0.0 mm
03:12 PM 69.6°F20.9°C 35.1°F1.7°C 28% 2.9 mph NW4.7 kmh NW 6.9 mph11.1 kmh 29.95 in1014.2 mb 0.00 in0.0 mm 0.00 in0.0 mm 0.00 in0.0 mm
03:22 PM 70.0°F21.1°C 34.5°F1.4°C 27% 4.9 mph W7.9 kmh W 11.0 mph17.7 kmh 29.96 in1014.6 mb 0.00 in0.0 mm 0.00 in0.0 mm 0.00 in0.0 mm
03:32 PM 68.7°F20.4°C 36.0°F2.2°C 30% 6.0 mph WNW9.7 kmh WNW 11.0 mph17.7 kmh 29.96 in1014.6 mb 0.00 in0.0 mm 0.00 in0.0 mm 0.00 in0.0 mm
03:42 PM 68.4°F20.2°C 40.3°F4.6°C 36% 4.9 mph WNW7.9 kmh WNW 8.1 mph13.0 kmh 29.96 in1014.6 mb 0.00 in0.0 mm 0.00 in0.0 mm 0.00 in0.0 mm
03:52 PM 68.2°F20.1°C 40.3°F4.6°C 36% 2.9 mph WSW4.7 kmh WSW 6.0 mph9.7 kmh 29.95 in1014.2 mb 0.00 in0.0 mm 0.00 in0.0 mm 0.00 in0.0 mm
04:02 PM 68.4°F20.2°C 39.6°F4.2°C 35% 2.0 mph WNW3.2 kmh WNW 2.9 mph4.7 kmh 29.95 in1014.2 mb 0.00 in0.0 mm 0.00 in0.0 mm 0.00 in0.0 mm
04:12 PM 68.2°F20.1°C 37.9°F3.3°C 33% 2.0 mph W3.2 kmh W 4.0 mph6.4 kmh 29.94 in1013.9 mb 0.00 in0.0 mm 0.00 in0.0 mm 0.00 in0.0 mm
04:22 PM 68.4°F20.2°C 37.4°F3.0°C 32% 0.9 mph WSW1.4 kmh WSW 4.0 mph6.4 kmh 29.93 in1013.5 mb 0.00 in0.0 mm 0.00 in0.0 mm 0.00 in0.0 mm
04:32 PM 68.4°F20.2°C 35.8°F2.1°C 30% 0.9 mph WNW1.4 kmh WNW 2.9 mph4.7 kmh 29.93 in1013.5 mb 0.00 in0.0 mm 0.00 in0.0 mm 0.00 in0.0 mm
04:42 PM 68.4°F20.2°C 38.1°F3.4°C 33% 2.0 mph W3.2 kmh W 4.9 mph7.9 kmh 29.94 in1013.9 mb 0.00 in0.0 mm 0.00 in0.0 mm 0.00 in0.0 mm
04:52 PM 68.4°F20.2°C 38.8°F3.8°C 34% 0.9 mph WSW1.4 kmh WSW 2.0 mph3.2 kmh 29.93 in1013.5 mb 0.00 in0.0 mm 0.00 in0.0 mm 0.00 in0.0 mm
05:02 PM 68.2°F20.1°C 40.3°F4.6°C 36% 2.9 mph WNW4.7 kmh WNW 6.0 mph9.7 kmh 29.94 in1013.9 mb 0.00 in0.0 mm 0.00 in0.0 mm 0.00 in0.0 mm
05:12 PM 67.8°F19.9°C 41.4°F5.2°C 38% 2.9 mph W4.7 kmh W 4.9 mph7.9 kmh 29.93 in1013.5 mb 0.00 in0.0 mm 0.00 in0.0 mm 0.00 in0.0 mm
05:22 PM 67.3°F19.6°C 42.1°F5.6°C 40% 4.0 mph W6.4 kmh W 7.0 mph11.3 kmh 29.95 in1014.2 mb 0.00 in0.0 mm 0.00 in0.0 mm 0.00 in0.0 mm
05:32 PM 66.4°F19.1°C 43.9°F6.6°C 44% 4.0 mph W6.4 kmh W 6.9 mph11.1 kmh 29.94 in1013.9 mb 0.00 in0.0 mm 0.00 in0.0 mm 0.00 in0.0 mm
05:42 PM 65.5°F18.6°C 41.7°F5.4°C 42% 2.9 mph W4.7 kmh W 4.9 mph7.9 kmh 29.94 in1013.9 mb 0.00 in0.0 mm 0.00 in0.0 mm 0.00 in0.0 mm
05:52 PM 65.1°F18.4°C 40.8°F4.9°C 41% 0.9 mph WSW1.4 kmh WSW 4.0 mph6.4 kmh 29.94 in1013.9 mb 0.00 in0.0 mm 0.00 in0.0 mm 0.00 in0.0 mm
06:02 PM 64.8°F18.2°C 41.2°F5.1°C 42% 0.9 mph WSW1.4 kmh WSW 2.9 mph4.7 kmh 29.94 in1013.9 mb 0.00 in0.0 mm 0.00 in0.0 mm 0.00 in0.0 mm
06:12 PM 64.2°F17.9°C 41.9°F5.5°C 44% 0.9 mph W1.4 kmh W 3.0 mph4.8 kmh 29.95 in1014.2 mb 0.00 in0.0 mm 0.00 in0.0 mm 0.00 in0.0 mm
06:22 PM 63.3°F17.4°C 42.8°F6.0°C 47% 0.9 mph SW1.4 kmh SW 4.0 mph6.4 kmh 29.95 in1014.2 mb 0.00 in0.0 mm 0.00 in0.0 mm 0.00 in0.0 mm
06:32 PM 62.8°F17.1°C 43.9°F6.6°C 50% 0.9 mph SW1.4 kmh SW 2.9 mph4.7 kmh 29.96 in1014.6 mb 0.00 in0.0 mm 0.00 in0.0 mm 0.00 in0.0 mm
06:42 PM 61.9°F16.6°C 46.0°F7.8°C 56% 2.9 mph SW4.7 kmh SW 6.0 mph9.7 kmh 29.96 in1014.6 mb 0.00 in0.0 mm 0.00 in0.0 mm 0.00 in0.0 mm
06:52 PM 61.0°F16.1°C 46.9°F8.3°C 60% 2.0 mph SW3.2 kmh SW 4.0 mph6.4 kmh 29.96 in1014.6 mb 0.00 in0.0 mm 0.00 in0.0 mm 0.00 in0.0 mm
07:02 PM 60.3°F15.7°C 46.8°F8.2°C 61% 0.9 mph S1.4 kmh S 2.9 mph4.7 kmh 29.97 in1014.9 mb 0.00 in0.0 mm 0.00 in0.0 mm 0.00 in0.0 mm
07:12 PM 59.7°F15.4°C 47.1°F8.4°C 63% 0.9 mph SW1.4 kmh SW 3.0 mph4.8 kmh 29.97 in1014.9 mb 0.00 in0.0 mm 0.00 in0.0 mm 0.00 in0.0 mm
07:22 PM 59.2°F15.1°C 47.5°F8.6°C 65% 0.9 mph SSE1.4 kmh SSE 2.9 mph4.7 kmh 29.97 in1014.9 mb 0.00 in0.0 mm 0.00 in0.0 mm 0.00 in0.0 mm
07:32 PM 58.6°F14.8°C 47.3°F8.5°C 66% 0.9 mph SW1.4 kmh SW 2.9 mph4.7 kmh 29.97 in1014.9 mb 0.00 in0.0 mm 0.00 in0.0 mm 0.00 in0.0 mm
07:42 PM 58.5°F14.7°C 48.0°F8.9°C 68% 2.0 mph SSE3.2 kmh SSE 4.0 mph6.4 kmh 29.97 in1014.9 mb 0.00 in0.0 mm 0.00 in0.0 mm 0.00 in0.0 mm
07:52 PM 58.3°F14.6°C 48.2°F9.0°C 69% 0.9 mph SSE1.4 kmh SSE 2.9 mph4.7 kmh 29.97 in1014.9 mb 0.00 in0.0 mm 0.00 in0.0 mm 0.00 in0.0 mm
08:02 PM 58.3°F14.6°C 47.8°F8.8°C 68% 2.0 mph SE3.2 kmh SE 4.0 mph6.4 kmh 29.98 in1015.2 mb 0.00 in0.0 mm 0.00 in0.0 mm 0.00 in0.0 mm
08:12 PM 57.9°F14.4°C 47.5°F8.6°C 68% 0.9 mph SE1.4 kmh SE 2.9 mph4.7 kmh 29.98 in1015.2 mb 0.00 in0.0 mm 0.00 in0.0 mm 0.00 in0.0 mm
08:22 PM 57.4°F14.1°C 47.3°F8.5°C 69% Calm Calm 0.9 mph1.4 kmh 29.98 in1015.2 mb 0.00 in0.0 mm 0.00 in0.0 mm 0.00 in0.0 mm
08:32 PM 57.6°F14.2°C 47.8°F8.8°C 70% Calm Calm 2.0 mph3.2 kmh 29.99 in1015.6 mb 0.00 in0.0 mm 0.00 in0.0 mm 0.00 in0.0 mm
08:42 PM 57.4°F14.1°C 47.7°F8.7°C 70% Calm Calm 2.0 mph3.2 kmh 30.00 in1015.9 mb 0.00 in0.0 mm 0.00 in0.0 mm 0.00 in0.0 mm
08:52 PM 56.8°F13.8°C 47.8°F8.8°C 72% Calm Calm 0.9 mph1.4 kmh 30.00 in1015.9 mb 0.00 in0.0 mm 0.00 in0.0 mm 0.00 in0.0 mm
09:02 PM 57.0°F13.9°C 49.1°F9.5°C 75% 0.9 mph SSW1.4 kmh SSW 2.9 mph4.7 kmh 30.01 in1016.3 mb 0.00 in0.0 mm 0.00 in0.0 mm 0.00 in0.0 mm
09:12 PM 56.7°F13.7°C 48.4°F9.1°C 74% 0.9 mph SE1.4 kmh SE 2.9 mph4.7 kmh 30.01 in1016.3 mb 0.00 in0.0 mm 0.00 in0.0 mm 0.00 in0.0 mm
09:22 PM 55.8°F13.2°C 47.7°F8.7°C 74% Calm Calm 0.9 mph1.4 kmh 30.01 in1016.3 mb 0.00 in0.0 mm 0.00 in0.0 mm 0.00 in0.0 mm
09:32 PM 55.6°F13.1°C 48.2°F9.0°C 76% Calm Calm -- 30.01 in1016.3 mb 0.00 in0.0 mm 0.00 in0.0 mm 0.00 in0.0 mm
09:42 PM 55.2°F12.9°C 47.5°F8.6°C 75% Calm Calm -- 30.01 in1016.3 mb 0.00 in0.0 mm 0.00 in0.0 mm 0.00 in0.0 mm
09:52 PM 54.9°F12.7°C 47.1°F8.4°C 75% Calm Calm -- 30.01 in1016.3 mb 0.00 in0.0 mm 0.00 in0.0 mm 0.00 in0.0 mm
10:02 PM 54.1°F12.3°C 44.2°F6.8°C 69% 0.9 mph NE1.4 kmh NE 3.0 mph4.8 kmh 30.01 in1016.3 mb 0.00 in0.0 mm 0.00 in0.0 mm 0.00 in0.0 mm
10:12 PM 54.0°F12.2°C 44.1°F6.7°C 69% Calm Calm 2.0 mph3.2 kmh 30.00 in1015.9 mb 0.00 in0.0 mm 0.00 in0.0 mm 0.00 in0.0 mm
10:22 PM 53.8°F12.1°C 43.9°F6.6°C 69% Calm Calm 0.9 mph1.4 kmh 30.01 in1016.3 mb 0.00 in0.0 mm 0.00 in0.0 mm 0.00 in0.0 mm
10:32 PM 53.4°F11.9°C 43.9°F6.6°C 70% Calm Calm -- 30.01 in1016.3 mb 0.00 in0.0 mm 0.00 in0.0 mm 0.00 in0.0 mm
10:42 PM 53.2°F11.8°C 44.1°F6.7°C 71% Calm Calm -- 30.02 in1016.6 mb 0.00 in0.0 mm 0.00 in0.0 mm 0.00 in0.0 mm
10:52 PM 52.9°F11.6°C 44.1°F6.7°C 72% Calm Calm -- 30.03 in1016.9 mb 0.00 in0.0 mm 0.00 in0.0 mm 0.00 in0.0 mm
11:02 PM 52.3°F11.3°C 44.2°F6.8°C 74% Calm Calm -- 30.03 in1016.9 mb 0.00 in0.0 mm 0.00 in0.0 mm 0.00 in0.0 mm
11:12 PM 52.2°F11.2°C 44.4°F6.9°C 75% Calm Calm -- 30.03 in1016.9 mb 0.00 in0.0 mm 0.00 in0.0 mm 0.00 in0.0 mm
11:22 PM 52.2°F11.2°C 45.1°F7.3°C 77% Calm Calm 2.0 mph3.2 kmh 30.03 in1016.9 mb 0.00 in0.0 mm 0.00 in0.0 mm 0.00 in0.0 mm
11:32 PM 52.3°F11.3°C 45.7°F7.6°C 78% Calm Calm 0.9 mph1.4 kmh 30.04 in1017.3 mb 0.00 in0.0 mm 0.00 in0.0 mm 0.00 in0.0 mm
11:42 PM 52.2°F11.2°C 45.9°F7.7°C 79% Calm Calm 0.9 mph1.4 kmh 30.03 in1016.9 mb 0.00 in0.0 mm 0.00 in0.0 mm 0.00 in0.0 mm
11:52 PM 52.2°F11.2°C 45.5°F7.5°C 78% Calm Calm -- 30.03 in1016.9 mb 0.00 in0.0 mm 0.00 in0.0 mm 0.00 in0.0 mm